Time;durP1;ratioP1;P1;durP2;ratioP2;P2;SDS_P1;SDS_P2;PMS_P1;PMS_P2;Temp;Humidity;BMP_temperature;BMP_pressure;BME280_temperature;BME280_humidity;BME280_pressure;Samples;Min_cycle;Max_cycle;Signal;HPM_P1;HPM_P2
2022/06/05 00:02:27;;;;;;;;;;;;;;;25.73;77.60;99161.16;5028800;28;20979;-44
2022/06/05 00:05:01;;;;;;;;;;;;;;;24.89;81.01;99166.97;5019132;28;20435;-41
2022/06/05 00:07:43;;;;;;;;;;;;;;;24.33;80.97;99167.47;5013645;28;19966;-41
2022/06/05 00:10:08;;;;;;;;;;;;;;;24.18;85.35;99159.94;5012725;28;20461;-42
2022/06/05 00:12:38;;;;;;;;;;;;;;;24.58;84.65;99159.13;5030942;28;20031;-42
2022/06/05 00:15:03;;;;;;;;;;;;;;;24.74;83.18;99152.50;5016749;28;19936;-42
2022/06/05 00:17:29;;;;;;;;;;;;;;;24.83;82.70;99151.69;5034697;28;19950;-42
2022/06/05 00:19:55;;;;;;;;;;;;;;;25.12;81.76;99140.34;5029808;28;19974;-44
2022/06/05 00:22:20;;;;;;;;;;;;;;;25.12;80.31;99140.34;5031959;28;19923;-44
2022/06/05 00:24:45;;;;;;;;;;;;;;;25.15;81.13;99134.78;5028889;28;19921;-44
2022/06/05 00:27:24;;;;;;;;;;;;;;;25.11;80.62;99130.75;5030763;28;19921;-44
2022/06/05 00:29:50;;;;;;;;;;;;;;;24.82;81.24;99139.50;5011947;28;19925;-44
2022/06/05 00:32:30;;;;;;;;;;;;;;;24.69;81.67;99146.81;5030478;28;19928;-44
2022/06/05 00:34:55;;;;;;;;;;;;;;;25.03;82.37;99148.09;5009116;28;19917;-44
2022/06/05 00:37:32;;;;;;;;;;;;;;;24.76;82.16;99155.84;5028243;28;20941;-44
2022/06/05 00:40:03;;;;;;;;;;;;;;;24.16;86.48;99167.13;5030986;28;20133;-44
2022/06/05 00:42:30;;;;;;;;;;;;;;;24.41;86.08;99162.38;5025427;28;19928;-44
2022/06/05 00:44:56;;;;;;;;;;;;;;;24.82;83.26;99157.94;5010785;28;19921;-44
2022/06/05 00:47:25;;;;;;;;;;;;;;;24.67;82.33;99161.91;5010178;28;20910;-44
2022/06/05 00:49:52;;;;;;;;;;;;;;;24.76;83.19;99158.47;5014894;28;21031;-44
2022/06/05 00:52:17;;;;;;;;;;;;;;;24.58;81.60;99148.59;5011773;28;20377;-44
2022/06/05 00:54:43;;;;;;;;;;;;;;;24.27;87.18;99160.09;5034541;28;19993;-44
2022/06/05 00:57:09;;;;;;;;;;;;;;;24.37;86.82;99156.53;5033036;28;19921;-44
2022/06/05 00:59:34;;;;;;;;;;;;;;;24.40;84.74;99165.97;5013270;28;20825;-44
2022/06/05 01:01:59;;;;;;;;;;;;;;;24.34;85.00;99162.06;5031001;28;19920;-44
2022/06/05 01:04:24;;;;;;;;;;;;;;;24.49;85.22;99149.38;5025199;28;19921;-44
2022/06/05 01:06:50;;;;;;;;;;;;;;;24.45;85.23;99145.34;5029399;28;19960;-44
2022/06/05 01:09:15;;;;;;;;;;;;;;;24.56;84.13;99142.66;5013104;28;19921;-43
2022/06/05 01:11:52;;;;;;;;;;;;;;;24.29;84.05;99148.50;5029744;28;19964;-43
2022/06/05 01:14:35;;;;;;;;;;;;;;;24.53;84.51;99135.00;5013545;28;19921;-44
2022/06/05 01:17:19;;;;;;;;;;;;;;;24.45;84.17;99137.47;5033399;28;19925;-44
2022/06/05 01:19:47;;;;;;;;;;;;;;;23.92;85.92;99130.56;5028537;28;19917;-44
2022/06/05 01:22:14;;;;;;;;;;;;;;;24.03;86.63;99121.78;5031048;28;19921;-44
2022/06/05 01:24:58;;;;;;;;;;;;;;;23.66;88.46;99110.91;5012002;28;19924;-44
2022/06/05 01:27:25;;;;;;;;;;;;;;;23.35;90.23;99106.41;5029491;28;19921;-44
2022/06/05 01:29:51;;;;;;;;;;;;;;;23.31;88.22;99107.66;5007579;28;19920;-44
2022/06/05 01:32:22;;;;;;;;;;;;;;;23.62;89.23;99096.34;5010358;28;19928;-44
2022/06/05 01:34:52;;;;;;;;;;;;;;;23.06;90.99;99106.22;5029931;28;19920;-44
2022/06/05 01:37:19;;;;;;;;;;;;;;;23.37;90.36;99093.97;5010625;28;20386;-44
2022/06/05 01:39:46;;;;;;;;;;;;;;;23.53;89.64;99103.22;5010556;28;19921;-44
2022/06/05 01:42:16;;;;;;;;;;;;;;;23.74;88.40;99095.28;5008856;28;19925;-44
2022/06/05 01:44:42;;;;;;;;;;;;;;;23.82;88.05;99098.16;5011000;28;19921;-44
2022/06/05 01:47:13;;;;;;;;;;;;;;;23.90;87.39;99092.22;5010026;28;20389;-44
2022/06/05 01:49:38;;;;;;;;;;;;;;;23.92;87.39;99090.28;5009083;28;20607;-44
2022/06/05 01:52:06;;;;;;;;;;;;;;;23.95;87.29;99103.22;5026761;28;20055;-44
2022/06/05 01:54:37;;;;;;;;;;;;;;;24.06;87.03;99100.44;5010184;28;19932;-44
2022/06/05 01:57:04;;;;;;;;;;;;;;;23.98;87.12;99105.56;5009385;28;19933;-44
2022/06/05 01:59:29;;;;;;;;;;;;;;;24.02;87.00;99099.06;5012128;28;20294;-44
2022/06/05 02:01:56;;;;;;;;;;;;;;;24.00;87.43;99101.00;5027258;28;19921;-44
2022/06/05 02:04:24;;;;;;;;;;;;;;;24.03;87.34;99094.63;5011011;28;20411;-44
2022/06/05 02:07:00;;;;;;;;;;;;;;;24.13;86.90;99095.50;5027463;28;20040;-44
2022/06/05 02:09:28;;;;;;;;;;;;;;;23.84;87.79;99082.25;5010958;28;19920;-44
2022/06/05 02:11:53;;;;;;;;;;;;;;;23.78;88.39;99089.69;5027737;28;19925;-44
2022/06/05 02:14:19;;;;;;;;;;;;;;;23.48;89.52;99084.38;5024352;28;20501;-43
2022/06/05 02:16:44;;;;;;;;;;;;;;;23.66;88.11;99087.25;5007205;28;19951;-43
2022/06/05 02:19:12;;;;;;;;;;;;;;;23.60;88.96;99083.31;5025418;28;19921;-44
2022/06/05 02:21:37;;;;;;;;;;;;;;;23.02;92.13;99082.94;5009773;28;20293;-44
2022/06/05 02:24:04;;;;;;;;;;;;;;;23.24;90.87;99082.00;5010926;28;19974;-44
2022/06/05 02:26:29;;;;;;;;;;;;;;;23.55;89.61;99077.63;5027632;28;19928;-44
2022/06/05 02:28:54;;;;;;;;;;;;;;;23.50;90.02;99071.94;5029148;28;20580;-44
2022/06/05 02:31:46;;;;;;;;;;;;;;;23.55;89.80;99067.94;5012935;28;19925;-44
2022/06/05 02:34:11;;;;;;;;;;;;;;;23.57;89.38;99057.31;5001840;28;19975;-44
2022/06/05 02:36:36;;;;;;;;;;;;;;;23.01;88.67;99057.63;5033416;28;19925;-43
2022/06/05 02:39:01;;;;;;;;;;;;;;;21.77;96.92;99057.84;5026047;28;19921;-44
2022/06/05 02:41:29;;;;;;;;;;;;;;;22.86;94.84;99039.53;5029340;28;20009;-44
2022/06/05 02:46:41;;;;;;;;;;;;;;;23.18;91.02;99030.81;5027186;28;20795;-43
2022/06/05 02:49:09;;;;;;;;;;;;;;;23.22;90.57;99023.47;5028854;28;19970;-44
2022/06/05 02:51:35;;;;;;;;;;;;;;;22.83;92.23;99016.16;5028367;28;19927;-44
2022/06/05 02:54:01;;;;;;;;;;;;;;;23.08;91.86;99012.34;5008663;28;19920;-44
2022/06/05 02:56:29;;;;;;;;;;;;;;;22.85;91.78;99014.22;5023255;28;20003;-44
2022/06/05 02:58:56;;;;;;;;;;;;;;;22.86;92.42;99010.66;5006048;28;19924;-44
2022/06/05 03:04:08;;;;;;;;;;;;;;;22.81;92.38;98996.22;5025172;28;20394;-44
2022/06/05 03:06:34;;;;;;;;;;;;;;;22.85;92.72;98987.94;5026386;28;19971;-44
2022/06/05 03:08:59;;;;;;;;;;;;;;;21.71;98.38;98988.38;5029102;28;19921;-44
2022/06/05 03:11:25;;;;;;;;;;;;;;;22.29;95.70;98980.34;5023481;28;19966;-44
2022/06/05 03:13:50;;;;;;;;;;;;;;;21.85;98.20;98976.81;5025558;28;20269;-44
2022/06/05 03:16:15;;;;;;;;;;;;;;;21.65;100.00;98966.13;5022581;28;19969;-44
2022/06/05 03:18:41;;;;;;;;;;;;;;;20.85;100.00;98974.81;5026493;28;20433;-44
2022/06/05 03:21:07;;;;;;;;;;;;;;;21.40;100.00;98966.34;5008310;28;19978;-44
2022/06/05 03:23:32;;;;;;;;;;;;;;;21.58;100.00;98967.56;5022476;28;19964;-44
2022/06/05 03:25:57;;;;;;;;;;;;;;;21.76;98.39;98962.66;5029800;28;19921;-44
2022/06/05 03:28:23;;;;;;;;;;;;;;;22.12;97.03;98951.03;5012445;28;19956;-44
2022/06/05 03:30:48;;;;;;;;;;;;;;;22.46;96.40;98956.16;5026914;28;20477;-44
2022/06/05 03:33:13;;;;;;;;;;;;;;;22.52;95.11;98945.16;5024967;28;19917;-44
2022/06/05 03:35:39;;;;;;;;;;;;;;;21.06;100.00;98955.81;5028392;28;20468;-44
2022/06/05 03:38:05;;;;;;;;;;;;;;;20.67;100.00;98947.41;5026967;28;19917;-44
2022/06/05 03:40:31;;;;;;;;;;;;;;;20.64;100.00;98945.00;5011386;28;19923;-44
2022/06/05 03:42:56;;;;;;;;;;;;;;;20.43;100.00;98950.00;5029959;28;19924;-44
2022/06/05 03:45:21;;;;;;;;;;;;;;;20.07;100.00;98943.91;5006580;28;20004;-44
2022/06/05 03:47:46;;;;;;;;;;;;;;;20.17;100.00;98944.91;5028107;28;19944;-44
2022/06/05 03:50:12;;;;;;;;;;;;;;;20.49;100.00;98928.63;5032651;28;19925;-44
2022/06/05 03:52:38;;;;;;;;;;;;;;;20.30;100.00;98942.25;5012079;28;19921;-43
2022/06/05 03:55:03;;;;;;;;;;;;;;;20.17;100.00;98946.69;5032958;28;19927;-44
2022/06/05 03:57:29;;;;;;;;;;;;;;;20.89;100.00;98944.84;5028725;28;19924;-44
2022/06/05 03:59:54;;;;;;;;;;;;;;;22.43;100.00;98938.06;5012380;28;20502;-44
2022/06/05 04:02:19;;;;;;;;;;;;;;;21.51;100.00;98953.25;5028701;28;19928;-44
2022/06/05 04:04:44;;;;;;;;;;;;;;;20.91;100.00;98955.19;5032892;28;20382;-44
2022/06/05 04:07:10;;;;;;;;;;;;;;;21.23;100.00;98952.75;5027737;28;20559;-44
2022/06/05 04:09:35;;;;;;;;;;;;;;;20.46;100.00;98953.25;5032867;28;19923;-44
2022/06/05 04:12:00;;;;;;;;;;;;;;;22.10;100.00;98947.69;5028638;28;19928;-44
2022/06/05 04:14:25;;;;;;;;;;;;;;;20.77;100.00;98952.78;5032219;28;19928;-44
2022/06/05 04:16:50;;;;;;;;;;;;;;;21.07;100.00;98945.22;5036099;28;19933;-44
2022/06/05 04:19:16;;;;;;;;;;;;;;;21.17;100.00;98947.16;5036907;28;19927;-44
2022/06/05 04:21:43;;;;;;;;;;;;;;;20.58;100.00;98950.69;5032686;28;19921;-43
2022/06/05 04:24:09;;;;;;;;;;;;;;;22.27;100.00;98940.28;5036942;28;19968;-44
2022/06/05 04:26:35;;;;;;;;;;;;;;;22.57;100.00;98933.47;5018343;28;20024;-44
2022/06/05 04:29:00;;;;;;;;;;;;;;;21.64;100.00;98937.41;5032146;28;19917;-44
2022/06/05 04:31:25;;;;;;;;;;;;;;;21.82;100.00;98940.34;5030734;28;19928;-43
2022/06/05 04:33:51;;;;;;;;;;;;;;;22.14;100.00;98945.63;5030847;28;19924;-44
2022/06/05 04:36:17;;;;;;;;;;;;;;;22.46;100.00;98945.66;5032108;28;20750;-43
2022/06/05 04:38:42;;;;;;;;;;;;;;;23.17;99.70;98950.31;5031671;28;20053;-43
2022/06/05 04:41:08;;;;;;;;;;;;;;;22.03;100.00;98964.03;5035227;28;19921;-44
2022/06/05 04:43:33;;;;;;;;;;;;;;;22.31;100.00;98962.69;5032416;28;19928;-44
2022/06/05 04:45:58;;;;;;;;;;;;;;;22.36;100.00;98960.50;5032004;28;20077;-43
2022/06/05 04:48:24;;;;;;;;;;;;;;;23.43;98.82;98948.09;5027265;28;19917;-44
2022/06/05 04:50:49;;;;;;;;;;;;;;;22.72;100.00;98953.19;5029443;28;19969;-44
2022/06/05 04:53:14;;;;;;;;;;;;;;;22.54;100.00;98948.50;5031243;28;19921;-44
2022/06/05 04:55:39;;;;;;;;;;;;;;;22.87;100.00;98949.28;5034320;28;19921;-44
2022/06/05 04:58:05;;;;;;;;;;;;;;;22.34;100.00;98946.69;5030557;28;20532;-43
2022/06/05 05:00:30;;;;;;;;;;;;;;;22.44;100.00;98952.00;5032000;28;19925;-44
2022/06/05 05:02:55;;;;;;;;;;;;;;;21.98;100.00;98948.66;5029738;28;19920;-43
2022/06/05 05:05:20;;;;;;;;;;;;;;;22.06;100.00;98948.88;5030042;28;20329;-44
2022/06/05 05:07:46;;;;;;;;;;;;;;;22.55;100.00;98939.66;5035342;28;20449;-43
2022/06/05 05:10:11;;;;;;;;;;;;;;;22.80;100.00;98942.03;5033183;28;20660;-43
2022/06/05 05:12:36;;;;;;;;;;;;;;;22.90;100.00;98943.78;5033009;28;19983;-43
2022/06/05 05:15:02;;;;;;;;;;;;;;;22.37;100.00;98940.34;5033710;28;20421;-43
2022/06/05 05:17:27;;;;;;;;;;;;;;;22.01;100.00;98932.69;5028392;28;19920;-44
2022/06/05 05:19:52;;;;;;;;;;;;;;;22.37;100.00;98930.69;5028630;28;20422;-44
2022/06/05 05:22:17;;;;;;;;;;;;;;;22.73;100.00;98932.03;5030087;28;20396;-44
2022/06/05 05:24:43;;;;;;;;;;;;;;;22.83;100.00;98931.28;5031927;28;19920;-44
2022/06/05 05:27:08;;;;;;;;;;;;;;;21.75;100.00;98945.25;5032934;28;19928;-44
2022/06/05 05:29:34;;;;;;;;;;;;;;;22.79;100.00;98930.72;5027115;28;20446;-44
2022/06/05 05:32:00;;;;;;;;;;;;;;;22.53;100.00;98920.59;5031604;28;19921;-44
2022/06/05 05:34:25;;;;;;;;;;;;;;;22.24;100.00;98924.78;5028511;28;19988;-44
2022/06/05 05:36:50;;;;;;;;;;;;;;;21.60;100.00;98931.59;5027628;28;19928;-44
2022/06/05 05:42:05;;;;;;;;;;;;;;;21.62;100.00;98942.78;5029867;28;19944;-43
2022/06/05 05:44:32;;;;;;;;;;;;;;;22.29;100.00;98933.94;5029396;28;20271;-44
2022/06/05 05:46:57;;;;;;;;;;;;;;;23.25;100.00;98941.78;5036257;28;19983;-43
2022/06/05 05:49:22;;;;;;;;;;;;;;;23.75;100.00;98934.78;5035492;28;20406;-44
2022/06/05 05:51:48;;;;;;;;;;;;;;;23.36;100.00;98939.91;5033181;28;19944;-44
2022/06/05 05:54:13;;;;;;;;;;;;;;;23.50;100.00;98935.25;5034788;28;20932;-44
2022/06/05 05:56:38;;;;;;;;;;;;;;;23.75;100.00;98934.78;5037622;28;19929;-43
2022/06/05 05:59:04;;;;;;;;;;;;;;;24.42;100.00;98938.47;5035280;28;20771;-43
2022/06/05 06:01:29;;;;;;;;;;;;;;;24.30;100.00;98942.22;5033569;28;19921;-44
2022/06/05 06:03:54;;;;;;;;;;;;;;;25.01;98.99;98935.78;5036063;28;20599;-43
2022/06/05 06:06:26;;;;;;;;;;;;;;;25.41;92.55;98935.56;5037351;28;20475;-44
2022/06/05 06:08:52;;;;;;;;;;;;;;;24.90;96.69;98931.50;5035725;28;21426;-44
2022/06/05 06:11:17;;;;;;;;;;;;;;;24.85;100.00;98928.47;5037640;28;19913;-44
2022/06/05 06:13:42;;;;;;;;;;;;;;;24.97;100.00;98922.06;5036625;28;19921;-44
2022/06/05 06:16:08;;;;;;;;;;;;;;;24.54;100.00;98907.63;5036693;28;19921;-44
2022/06/05 06:18:33;;;;;;;;;;;;;;;23.82;100.00;98913.22;5036172;28;19932;-43
2022/06/05 06:20:58;;;;;;;;;;;;;;;24.86;100.00;98902.97;5033968;28;19916;-44
2022/06/05 06:23:23;;;;;;;;;;;;;;;25.72;100.00;98914.16;5032423;28;19917;-44
2022/06/05 06:25:49;;;;;;;;;;;;;;;26.17;96.25;98923.06;5036561;28;19963;-44
2022/06/05 06:28:14;;;;;;;;;;;;;;;26.62;92.78;98920.34;5031437;28;19921;-44
2022/06/05 06:30:40;;;;;;;;;;;;;;;26.57;94.12;98927.06;5027212;28;19917;-44
2022/06/05 06:33:05;;;;;;;;;;;;;;;26.16;97.43;98916.09;5032121;28;19916;-44
2022/06/05 06:35:30;;;;;;;;;;;;;;;26.15;96.60;98917.91;5026784;28;19971;-44
2022/06/05 06:37:55;;;;;;;;;;;;;;;26.58;96.78;98918.97;5011023;28;20536;-43
2022/06/05 06:40:21;;;;;;;;;;;;;;;26.53;96.00;98915.94;5027106;28;20271;-44
2022/06/05 06:42:46;;;;;;;;;;;;;;;25.91;100.00;98921.16;5023595;28;19956;-44
2022/06/05 06:45:11;;;;;;;;;;;;;;;26.74;98.47;98914.81;5029463;28;19925;-44
2022/06/05 06:47:37;;;;;;;;;;;;;;;25.67;100.00;98913.78;5028285;28;19956;-44
2022/06/05 06:50:02;;;;;;;;;;;;;;;25.94;100.00;98907.66;5028048;28;19925;-44
2022/06/05 06:52:27;;;;;;;;;;;;;;;26.08;98.98;98901.03;5027044;28;20362;-44
2022/06/05 06:54:53;;;;;;;;;;;;;;;24.74;100.00;98900.50;5026056;28;20560;-43
2022/06/05 06:57:18;;;;;;;;;;;;;;;25.66;100.00;98889.22;5028358;28;20826;-44
2022/06/05 06:59:44;;;;;;;;;;;;;;;24.84;100.00;98895.22;5026976;28;19913;-44
2022/06/05 07:02:09;;;;;;;;;;;;;;;24.25;100.00;98878.66;5028111;28;19917;-44
2022/06/05 07:04:34;;;;;;;;;;;;;;;24.37;100.00;98879.31;5027183;28;19982;-43
2022/06/05 07:07:02;;;;;;;;;;;;;;;24.79;100.00;98866.69;5026271;28;19970;-43
2022/06/05 07:09:28;;;;;;;;;;;;;;;25.32;100.00;98872.34;5029870;28;19927;-43
2022/06/05 07:11:53;;;;;;;;;;;;;;;25.27;100.00;98871.91;5032629;28;19936;-44
2022/06/05 07:14:18;;;;;;;;;;;;;;;24.99;100.00;98856.88;5026105;28;19952;-43
2022/06/05 07:16:43;;;;;;;;;;;;;;;25.00;100.00;98860.38;5027065;28;19979;-44
2022/06/05 07:19:09;;;;;;;;;;;;;;;25.30;100.00;98859.28;5027440;28;19928;-44
2022/06/05 07:21:34;;;;;;;;;;;;;;;24.54;100.00;98851.47;5029028;28;20378;-43
2022/06/05 07:23:59;;;;;;;;;;;;;;;24.52;100.00;98849.00;5007173;28;19924;-44
2022/06/05 07:26:26;;;;;;;;;;;;;;;25.22;100.00;98840.72;5032858;28;20056;-44
2022/06/05 07:28:51;;;;;;;;;;;;;;;24.63;100.00;98834.81;5027203;28;20019;-44
2022/06/05 07:31:17;;;;;;;;;;;;;;;24.76;100.00;98835.34;5033076;28;20067;-44
2022/06/05 07:33:42;;;;;;;;;;;;;;;24.86;100.00;98834.47;5032169;28;20862;-43
2022/06/05 07:36:09;;;;;;;;;;;;;;;25.70;100.00;98823.78;5033798;28;19964;-44
2022/06/05 07:38:34;;;;;;;;;;;;;;;25.16;100.00;98821.03;5031487;28;19931;-43
2022/06/05 07:41:00;;;;;;;;;;;;;;;25.86;100.00;98809.91;5033088;28;20325;-43
2022/06/05 07:43:25;;;;;;;;;;;;;;;26.03;100.00;98814.41;5027805;28;20017;-43
2022/06/05 07:45:50;;;;;;;;;;;;;;;25.03;100.00;98823.19;5029321;28;20533;-43
2022/06/05 07:48:18;;;;;;;;;;;;;;;25.10;100.00;98820.81;5032207;28;19917;-44
2022/06/05 07:56:11;;;;;;;;;;;;;;;23.82;100.00;98808.03;5029418;28;19932;-44
2022/06/05 07:58:36;;;;;;;;;;;;;;;25.28;100.00;98794.53;5031438;28;19921;-44
2022/06/05 08:01:02;;;;;;;;;;;;;;;24.17;100.00;98800.38;5029576;28;19924;-44
2022/06/05 08:03:27;;;;;;;;;;;;;;;25.36;100.00;98798.09;5032515;28;19917;-44
2022/06/05 08:05:52;;;;;;;;;;;;;;;24.82;100.00;98794.44;5013810;28;20597;-44
2022/06/05 08:08:17;;;;;;;;;;;;;;;24.98;100.00;98780.66;5031332;28;20345;-44
2022/06/05 08:10:42;;;;;;;;;;;;;;;24.14;100.00;98797.22;5015009;28;19963;-44
2022/06/05 08:13:08;;;;;;;;;;;;;;;25.29;100.00;98799.63;5029280;28;19944;-43
2022/06/05 08:15:33;;;;;;;;;;;;;;;26.49;100.00;98793.09;5031276;28;20005;-44
2022/06/05 08:17:58;;;;;;;;;;;;;;;26.88;100.00;98787.41;5027794;28;19925;-44
2022/06/05 08:20:24;;;;;;;;;;;;;;;26.31;100.00;98794.97;5031492;28;19921;-44
2022/06/05 08:22:49;;;;;;;;;;;;;;;26.47;100.00;98789.78;5032329;28;19913;-44
2022/06/05 08:25:14;;;;;;;;;;;;;;;25.86;100.00;98787.03;5028931;28;19927;-43
2022/06/05 08:27:39;;;;;;;;;;;;;;;25.75;100.00;98787.25;5033754;28;19920;-43
2022/06/05 08:30:06;;;;;;;;;;;;;;;26.16;100.00;98787.63;5013377;28;19955;-38
2022/06/05 08:32:31;;;;;;;;;;;;;;;26.95;99.76;98784.94;5027978;28;19916;-38
2022/06/05 08:34:56;;;;;;;;;;;;;;;26.15;99.87;98785.13;5030095;28;19984;-38
2022/06/05 08:42:50;;;;;;;;;;;;;;;27.75;95.35;98758.88;5012226;28;19928;-38
2022/06/05 08:45:19;;;;;;;;;;;;;;;27.81;90.48;98758.22;5026252;28;19921;-52
2022/06/05 08:47:50;;;;;;;;;;;;;;;27.87;91.42;98762.88;5013351;28;19921;-51
2022/06/05 08:50:19;;;;;;;;;;;;;;;27.46;95.72;98764.63;5014659;28;19917;-50
2022/06/05 08:52:47;;;;;;;;;;;;;;;26.77;98.42;98763.88;5030082;28;19921;-50
2022/06/05 08:55:14;;;;;;;;;;;;;;;26.68;97.65;98770.94;5030607;28;19963;-50
2022/06/05 08:57:47;;;;;;;;;;;;;;;26.91;94.29;98765.94;5014513;28;19968;-51
2022/06/05 09:00:16;;;;;;;;;;;;;;;26.58;94.59;98771.06;5027077;28;19979;-38
2022/06/05 09:02:48;;;;;;;;;;;;;;;27.20;96.31;98770.00;5003791;28;19920;-38
2022/06/05 09:05:35;;;;;;;;;;;;;;;27.34;94.44;98777.31;5010164;28;19944;-38
2022/06/05 09:08:11;;;;;;;;;;;;;;;27.59;94.43;98766.78;5010645;28;19928;-38
2022/06/05 09:10:46;;;;;;;;;;;;;;;27.82;89.69;98764.31;5011139;28;19921;-38
2022/06/05 09:13:24;;;;;;;;;;;;;;;27.67;91.76;98756.22;5007519;28;19996;-38
2022/06/05 09:16:00;;;;;;;;;;;;;;;28.33;89.30;98757.03;5027284;28;19927;-38
2022/06/05 09:18:26;;;;;;;;;;;;;;;27.26;90.01;98764.94;5028937;28;19927;-38
2022/06/05 09:20:51;;;;;;;;;;;;;;;27.03;95.76;98775.25;5006993;28;19921;-39
2022/06/05 09:23:26;;;;;;;;;;;;;;;27.12;93.71;98776.91;5033093;28;19927;-38
2022/06/05 09:26:00;;;;;;;;;;;;;;;27.68;89.51;98777.22;5010028;28;19924;-38
2022/06/05 09:28:35;;;;;;;;;;;;;;;26.58;95.79;98781.63;5007880;28;19921;-39
2022/06/05 09:31:02;;;;;;;;;;;;;;;26.05;97.38;98777.31;5029713;28;19913;-39
2022/06/05 09:33:31;;;;;;;;;;;;;;;26.05;98.85;98785.22;5011524;28;19929;-39
2022/06/05 09:35:57;;;;;;;;;;;;;;;26.08;98.02;98783.09;5003862;28;19920;-39
2022/06/05 09:38:22;;;;;;;;;;;;;;;27.34;93.21;98774.69;5009475;28;21156;-38
2022/06/05 09:41:06;;;;;;;;;;;;;;;27.10;92.26;98776.25;5023167;28;20488;-38
2022/06/05 09:43:37;;;;;;;;;;;;;;;26.14;99.79;98783.44;5022853;28;19924;-39
2022/06/05 09:46:10;;;;;;;;;;;;;;;26.97;95.44;98782.97;5006436;28;19972;-39
2022/06/05 09:48:36;;;;;;;;;;;;;;;26.60;95.49;98790.22;5007368;28;20019;-39
2022/06/05 09:51:01;;;;;;;;;;;;;;;26.08;97.57;98779.63;5024633;28;20482;-39
2022/06/05 09:53:27;;;;;;;;;;;;;;;26.67;94.49;98780.69;5008166;28;19917;-39
2022/06/05 09:56:16;;;;;;;;;;;;;;;27.03;91.14;98780.53;5005658;28;19925;-39
2022/06/05 09:58:51;;;;;;;;;;;;;;;25.36;97.16;98784.91;5008240;28;19917;-39
2022/06/05 10:01:23;;;;;;;;;;;;;;;26.21;97.16;98780.06;5021566;28;19949;-38
2022/06/05 10:03:49;;;;;;;;;;;;;;;25.94;98.95;98782.81;5020911;28;19921;-39
2022/06/05 10:06:14;;;;;;;;;;;;;;;26.06;100.00;98786.88;5024237;28;19923;-39
2022/06/05 10:08:41;;;;;;;;;;;;;;;26.61;100.00;98791.06;5026108;28;19916;-38
2022/06/05 10:11:08;;;;;;;;;;;;;;;26.82;100.00;98795.94;5005286;28;19957;-39
2022/06/05 10:13:39;;;;;;;;;;;;;;;27.01;100.00;98793.06;5006169;28;19928;-38
2022/06/05 10:16:06;;;;;;;;;;;;;;;27.26;100.00;98791.38;5019035;28;20845;-38
2022/06/05 10:18:47;;;;;;;;;;;;;;;27.42;100.00;98795.88;5005785;28;20404;-38
2022/06/05 10:21:13;;;;;;;;;;;;;;;26.35;100.00;98791.88;5002022;28;19932;-39
2022/06/05 10:23:58;;;;;;;;;;;;;;;26.79;100.00;98805.00;5002795;28;20645;-39
2022/06/05 10:26:33;;;;;;;;;;;;;;;25.74;100.00;98798.78;5019355;28;19929;-39
2022/06/05 10:29:28;;;;;;;;;;;;;;;25.57;100.00;98796.97;5022683;28;19917;-39
2022/06/05 10:32:05;;;;;;;;;;;;;;;26.08;100.00;98803.38;5008840;28;20523;-38
2022/06/05 10:34:39;;;;;;;;;;;;;;;25.78;100.00;98812.50;5004821;28;19928;-38
2022/06/05 10:37:23;;;;;;;;;;;;;;;26.72;100.00;98800.53;5005567;28;19932;-39
2022/06/05 10:40:07;;;;;;;;;;;;;;;26.15;100.00;98800.97;5022125;28;19945;-39
2022/06/05 10:42:35;;;;;;;;;;;;;;;26.88;100.00;98793.50;5023141;28;20465;-39
2022/06/05 10:45:07;;;;;;;;;;;;;;;26.12;100.00;98807.38;5023428;28;19963;-39
2022/06/05 10:47:48;;;;;;;;;;;;;;;25.72;100.00;98806.00;5021998;28;20575;-39
2022/06/05 10:50:21;;;;;;;;;;;;;;;25.90;100.00;98792.03;5003765;28;19929;-38
2022/06/05 10:52:50;;;;;;;;;;;;;;;26.42;100.00;98800.00;5003729;28;19917;-38
2022/06/05 10:55:15;;;;;;;;;;;;;;;26.05;100.00;98795.78;5006434;28;19924;-39
2022/06/05 10:57:41;;;;;;;;;;;;;;;25.70;100.00;98797.41;5024040;28;20829;-38
2022/06/05 11:00:06;;;;;;;;;;;;;;;26.90;100.00;98796.00;5031418;28;19967;-38
2022/06/05 11:02:40;;;;;;;;;;;;;;;26.86;100.00;98794.66;5027624;28;19948;-38
2022/06/05 11:05:26;;;;;;;;;;;;;;;26.09;100.00;98786.56;5031381;28;19931;-38
2022/06/05 11:07:58;;;;;;;;;;;;;;;28.13;100.00;98761.88;5029583;28;19921;-38
2022/06/05 11:13:39;;;;;;;;;;;;;;;26.58;100.00;98771.06;5010212;28;19920;-38
2022/06/05 11:16:22;;;;;;;;;;;;;;;27.84;100.00;98752.59;5013555;28;20461;-38
2022/06/05 11:18:47;;;;;;;;;;;;;;;28.11;100.00;98747.97;5021814;28;20406;-38
2022/06/05 11:21:15;;;;;;;;;;;;;;;28.05;100.00;98744.16;5026772;28;19979;-38
2022/06/05 11:23:40;;;;;;;;;;;;;;;28.56;100.00;98735.97;5009145;28;19917;-38
2022/06/05 11:26:13;;;;;;;;;;;;;;;27.27;100.00;98734.84;5008283;28;19928;-38
2022/06/05 11:28:48;;;;;;;;;;;;;;;26.64;100.00;98736.13;5011754;28;19931;-38
2022/06/05 11:31:15;;;;;;;;;;;;;;;26.67;100.00;98733.13;5012755;28;20055;-38
2022/06/05 11:33:54;;;;;;;;;;;;;;;25.91;100.00;98731.19;5011590;28;19921;-38
2022/06/05 11:36:24;;;;;;;;;;;;;;;25.72;100.00;98731.31;4998598;28;20381;-38
2022/06/05 11:38:49;;;;;;;;;;;;;;;25.01;100.00;98722.38;5013811;28;20564;-38
2022/06/05 11:41:14;;;;;;;;;;;;;;;26.54;100.00;98716.88;5028327;28;19920;-38
2022/06/05 11:43:40;;;;;;;;;;;;;;;25.48;100.00;98718.75;5026033;28;19928;-38
2022/06/05 11:46:08;;;;;;;;;;;;;;;25.10;100.00;98707.50;5012876;28;19921;-38
2022/06/05 11:48:42;;;;;;;;;;;;;;;24.97;100.00;98706.03;5027862;28;19923;-38
2022/06/05 11:51:26;;;;;;;;;;;;;;;26.10;100.00;98693.22;5028907;28;19925;-38
2022/06/05 11:53:54;;;;;;;;;;;;;;;25.74;100.00;98698.53;5030958;28;19975;-39
2022/06/05 11:56:19;;;;;;;;;;;;;;;25.49;100.00;98689.59;5031416;28;20007;-38
2022/06/05 11:58:47;;;;;;;;;;;;;;;26.04;100.00;98685.91;5029201;28;19932;-38
2022/06/05 12:01:17;;;;;;;;;;;;;;;25.80;100.00;98678.66;5011915;28;19988;-38
2022/06/05 12:03:58;;;;;;;;;;;;;;;24.73;100.00;98671.53;5010785;28;19924;-38
2022/06/05 12:06:37;;;;;;;;;;;;;;;25.46;100.00;98666.19;5031863;28;19978;-38
2022/06/05 12:09:04;;;;;;;;;;;;;;;25.70;100.00;98665.53;5009245;28;20400;-38
2022/06/05 12:11:38;;;;;;;;;;;;;;;26.24;100.00;98647.75;5009360;28;20378;-38
2022/06/05 12:14:22;;;;;;;;;;;;;;;24.94;100.00;98648.38;5029817;28;20064;-38
2022/06/05 12:16:47;;;;;;;;;;;;;;;25.51;100.00;98649.91;5027873;28;20023;-38
2022/06/05 12:19:15;;;;;;;;;;;;;;;26.18;100.00;98632.53;5028187;28;20283;-38
2022/06/05 12:21:40;;;;;;;;;;;;;;;26.48;100.00;98641.75;5025382;28;19921;-38
2022/06/05 12:24:09;;;;;;;;;;;;;;;25.98;100.00;98625.84;5027048;28;19927;-38
2022/06/05 12:26:40;;;;;;;;;;;;;;;25.08;100.00;98625.13;5010249;28;19927;-38
2022/06/05 12:29:08;;;;;;;;;;;;;;;25.02;100.00;98613.38;5010260;28;20044;-38
2022/06/05 12:31:37;;;;;;;;;;;;;;;26.36;100.00;98607.88;5010533;28;19920;-38
2022/06/05 12:34:02;;;;;;;;;;;;;;;25.72;100.00;98610.00;5014279;28;19932;-38
2022/06/05 12:36:35;;;;;;;;;;;;;;;25.86;100.00;98602.34;5029602;28;19924;-38
2022/06/05 12:39:00;;;;;;;;;;;;;;;25.81;100.00;98609.88;5014206;28;19967;-38
2022/06/05 12:41:30;;;;;;;;;;;;;;;25.11;100.00;98611.63;5027715;28;19967;-38
2022/06/05 12:44:19;;;;;;;;;;;;;;;25.81;100.00;98615.16;5030197;28;19925;-38
2022/06/05 12:46:54;;;;;;;;;;;;;;;26.10;100.00;98611.41;5006754;28;20044;-38
2022/06/05 12:49:23;;;;;;;;;;;;;;;26.36;100.00;98618.44;5030451;28;19975;-38
2022/06/05 12:52:02;;;;;;;;;;;;;;;25.44;100.00;98613.59;5012586;28;19971;-38
2022/06/05 12:54:46;;;;;;;;;;;;;;;26.47;100.00;98603.13;5008534;28;20015;-38
2022/06/05 12:57:14;;;;;;;;;;;;;;;27.24;100.00;98596.88;5014853;28;20003;-38
2022/06/05 12:59:40;;;;;;;;;;;;;;;27.46;100.00;98601.50;5016572;28;20579;-38
2022/06/05 13:02:08;;;;;;;;;;;;;;;26.20;100.00;98603.34;5026452;28;20511;-38
2022/06/05 13:04:42;;;;;;;;;;;;;;;26.04;100.00;98597.00;5010934;28;19931;-38
2022/06/05 13:07:11;;;;;;;;;;;;;;;26.58;100.00;98596.75;5011109;28;20328;-38
2022/06/05 13:09:41;;;;;;;;;;;;;;;25.59;100.00;98599.84;5014987;28;19997;-38